createdAt,value
2022-10-17T00:02:15.182Z,7.53
2022-10-17T00:04:41.959Z,6.73
2022-10-17T00:07:09.025Z,6.33
2022-10-17T00:09:35.651Z,6.50
2022-10-17T00:12:02.747Z,7.17
2022-10-17T00:14:29.802Z,6.60
2022-10-17T00:16:56.444Z,6.10
2022-10-17T00:19:23.111Z,6.10
2022-10-17T00:21:50.200Z,6.87
2022-10-17T00:24:17.331Z,6.47
2022-10-17T00:26:44.023Z,6.33
2022-10-17T00:29:10.806Z,6.07
2022-10-17T00:31:37.708Z,6.60
2022-10-17T00:34:04.377Z,6.43
2022-10-17T00:36:31.114Z,7.00
2022-10-17T00:38:59.682Z,6.43
2022-10-17T00:41:32.179Z,6.23
2022-10-17T00:44:06.300Z,5.90
2022-10-17T00:46:36.110Z,6.70
2022-10-17T00:49:10.047Z,6.77
2022-10-17T00:51:47.365Z,6.73
2022-10-17T00:54:16.254Z,6.57
2022-10-17T00:56:44.212Z,6.37
2022-10-17T00:59:13.546Z,7.00
2022-10-17T01:01:42.985Z,6.70
2022-10-17T01:04:10.253Z,6.43
2022-10-17T01:06:36.975Z,6.27
2022-10-17T01:09:04.092Z,6.17
2022-10-17T01:11:31.109Z,6.20
2022-10-17T01:14:05.975Z,6.60
2022-10-17T01:16:45.127Z,6.60
2022-10-17T01:19:26.641Z,7.10
2022-10-17T01:22:00.903Z,6.87
2022-10-17T01:24:41.664Z,7.27
2022-10-17T01:27:39.134Z,6.53
2022-10-17T01:30:30.939Z,6.40
2022-10-17T01:33:07.904Z,6.90
2022-10-17T01:36:03.190Z,6.87
2022-10-17T01:38:49.338Z,6.63
2022-10-17T01:41:46.646Z,7.17
2022-10-17T01:44:33.059Z,7.17
2022-10-17T01:47:05.394Z,7.60
2022-10-17T01:49:34.465Z,6.63
2022-10-17T01:52:15.038Z,6.63
2022-10-17T01:54:53.299Z,6.80
2022-10-17T01:57:33.323Z,6.93
2022-10-17T02:00:03.951Z,6.33
2022-10-17T02:02:32.427Z,6.20
2022-10-17T02:07:33.385Z,6.37
2022-10-17T02:10:00.031Z,6.40
2022-10-17T02:12:27.061Z,6.83
2022-10-17T02:15:25.902Z,5.60
2022-10-17T02:18:01.479Z,7.17
2022-10-17T02:20:33.963Z,6.47
2022-10-17T02:23:12.253Z,7.00
2022-10-17T02:25:57.944Z,6.83
2022-10-17T02:28:35.442Z,6.20
2022-10-17T02:31:20.871Z,6.53
2022-10-17T02:34:01.791Z,6.40
2022-10-17T02:36:38.827Z,6.73
2022-10-17T02:39:08.832Z,6.27
2022-10-17T02:41:38.481Z,7.87
2022-10-17T02:44:06.361Z,6.47
2022-10-17T02:46:34.241Z,6.23
2022-10-17T02:49:05.732Z,6.67
2022-10-17T02:51:56.065Z,5.93
2022-10-17T02:54:32.711Z,6.77
2022-10-17T02:57:16.487Z,7.00
2022-10-17T02:59:45.576Z,6.50
2022-10-17T03:02:12.594Z,6.20
2022-10-17T03:04:43.428Z,6.20
2022-10-17T03:07:10.070Z,5.93
2022-10-17T03:09:36.738Z,6.23
2022-10-17T03:12:03.606Z,5.80
2022-10-17T03:14:30.320Z,6.73
2022-10-17T03:16:56.929Z,6.20
2022-10-17T03:19:23.641Z,6.07
2022-10-17T03:21:50.288Z,6.60
2022-10-17T03:24:16.925Z,6.03
2022-10-17T03:26:43.644Z,6.00
2022-10-17T03:29:10.452Z,5.33
2022-10-17T03:31:37.158Z,5.53
2022-10-17T03:34:04.021Z,5.87
2022-10-17T03:36:30.715Z,6.13
2022-10-17T03:38:57.380Z,5.60
2022-10-17T03:41:24.103Z,6.17
2022-10-17T03:43:53.426Z,6.20
2022-10-17T03:46:20.142Z,5.70
2022-10-17T03:48:46.759Z,5.40
2022-10-17T03:51:13.654Z,6.37
2022-10-17T03:53:40.311Z,6.53
2022-10-17T03:56:14.848Z,5.90
2022-10-17T03:58:41.845Z,5.80
2022-10-17T04:01:10.664Z,5.90
2022-10-17T04:03:37.675Z,6.40
2022-10-17T04:06:05.645Z,5.70
2022-10-17T04:08:32.990Z,6.73
2022-10-17T04:11:01.015Z,6.43
2022-10-17T04:13:28.944Z,5.77
2022-10-17T04:16:04.727Z,6.30
2022-10-17T04:18:32.056Z,5.70
2022-10-17T04:21:00.973Z,5.80
2022-10-17T04:23:27.704Z,5.40
2022-10-17T04:25:58.545Z,5.63
2022-10-17T04:28:26.382Z,5.87
2022-10-17T04:31:01.957Z,5.80
2022-10-17T04:33:28.806Z,5.07
2022-10-17T04:35:59.394Z,5.77
2022-10-17T04:38:28.541Z,5.57
2022-10-17T04:40:58.356Z,5.10
2022-10-17T04:43:27.672Z,5.70
2022-10-17T04:45:54.364Z,5.50
2022-10-17T04:48:24.159Z,5.00
2022-10-17T04:50:58.916Z,5.77
2022-10-17T04:53:26.849Z,5.67
2022-10-17T04:55:54.065Z,5.70
2022-10-17T04:58:21.651Z,5.80
2022-10-17T05:00:48.454Z,5.83
2022-10-17T05:03:15.298Z,5.40
2022-10-17T05:05:42.894Z,5.10
2022-10-17T05:08:11.363Z,5.57
2022-10-17T05:10:43.884Z,5.57
2022-10-17T05:13:11.337Z,5.27
2022-10-17T05:15:38.515Z,5.77
2022-10-17T05:18:06.303Z,6.13
2022-10-17T05:20:33.460Z,5.97
2022-10-17T05:23:00.697Z,5.30
2022-10-17T05:25:27.401Z,7.17
2022-10-17T05:27:54.385Z,5.90
2022-10-17T05:30:24.190Z,5.93
2022-10-17T05:32:55.020Z,5.87
2022-10-17T05:35:21.881Z,5.50
2022-10-17T05:37:48.613Z,5.57
2022-10-17T05:40:15.444Z,5.47
2022-10-17T05:42:47.699Z,5.63
2022-10-17T05:45:15.411Z,5.00
2022-10-17T05:47:42.198Z,5.33
2022-10-17T05:50:09.577Z,5.10
2022-10-17T05:52:36.420Z,5.73
2022-10-17T05:55:04.903Z,4.90
2022-10-17T05:57:31.565Z,5.03
2022-10-17T05:59:58.277Z,5.50
2022-10-17T06:02:25.005Z,5.20
2022-10-17T06:04:51.768Z,5.30
2022-10-17T06:07:21.329Z,5.00
2022-10-17T06:09:47.991Z,5.17
2022-10-17T06:12:14.646Z,5.90
2022-10-17T06:14:41.351Z,5.07
2022-10-17T06:17:12.121Z,5.00
2022-10-17T06:19:41.998Z,5.30
2022-10-17T06:22:08.700Z,4.60
2022-10-17T06:24:35.442Z,6.17
2022-10-17T06:27:02.138Z,4.60
2022-10-17T06:29:28.779Z,4.87
2022-10-17T06:31:55.482Z,4.80
2022-10-17T06:34:22.723Z,4.87
2022-10-17T06:36:49.514Z,5.00
2022-10-17T06:39:16.253Z,4.53
2022-10-17T06:41:44.450Z,5.00
2022-10-17T06:44:11.557Z,4.70
2022-10-17T06:46:39.203Z,4.43
2022-10-17T06:49:09.168Z,4.70
2022-10-17T06:51:36.879Z,4.70
2022-10-17T06:54:04.546Z,4.60
2022-10-17T06:56:31.248Z,5.03
2022-10-17T06:58:57.968Z,5.07
2022-10-17T07:01:24.644Z,4.37
2022-10-17T07:03:52.281Z,4.17
2022-10-17T07:06:19.172Z,4.47
2022-10-17T07:08:46.170Z,4.13
2022-10-17T07:11:15.242Z,3.80
2022-10-17T07:13:42.258Z,4.30
2022-10-17T07:16:09.399Z,4.30
2022-10-17T07:18:36.760Z,4.53
2022-10-17T07:21:03.978Z,4.27
2022-10-17T07:23:30.973Z,3.80
2022-10-17T07:26:02.292Z,4.50
2022-10-17T07:28:29.390Z,4.20
2022-10-17T07:30:56.187Z,4.03
2022-10-17T07:33:22.832Z,3.57
2022-10-17T07:35:49.649Z,4.03
2022-10-17T07:38:16.315Z,4.30
2022-10-17T07:40:46.082Z,3.67
2022-10-17T07:43:12.741Z,3.50
2022-10-17T07:45:41.161Z,3.77
2022-10-17T07:48:07.808Z,3.83
2022-10-17T07:50:34.454Z,4.60
2022-10-17T07:53:01.450Z,3.67
2022-10-17T07:55:28.165Z,4.07
2022-10-17T07:57:54.842Z,3.97
2022-10-17T08:00:30.334Z,3.63
2022-10-17T08:02:57.055Z,4.07
2022-10-17T08:05:25.999Z,3.70
2022-10-17T08:07:52.663Z,3.60
2022-10-17T08:10:19.546Z,3.57
2022-10-17T08:12:46.220Z,3.30
2022-10-17T08:15:13.035Z,3.60
2022-10-17T08:17:39.745Z,3.37
2022-10-17T08:20:07.068Z,3.70
2022-10-17T08:22:33.708Z,3.70
2022-10-17T08:25:00.369Z,3.27
2022-10-17T08:27:28.841Z,3.90
2022-10-17T08:29:55.570Z,3.57
2022-10-17T08:32:26.261Z,3.53
2022-10-17T08:34:53.756Z,3.53
2022-10-17T08:37:20.554Z,3.87
2022-10-17T08:39:47.914Z,3.27
2022-10-17T08:42:33.189Z,3.17
2022-10-17T08:45:25.905Z,3.43
2022-10-17T08:48:14.674Z,3.47
2022-10-17T08:51:09.914Z,3.43
2022-10-17T08:53:39.399Z,3.30
2022-10-17T08:56:47.596Z,3.67
2022-10-17T08:59:21.581Z,3.17
2022-10-17T09:01:48.177Z,3.67
2022-10-17T09:05:01.931Z,3.20
2022-10-17T09:07:38.350Z,3.13
2022-10-17T09:10:33.784Z,3.30
2022-10-17T09:13:19.278Z,3.10
2022-10-17T09:16:05.215Z,3.35
2022-10-17T09:18:36.594Z,2.60
2022-10-17T09:21:33.658Z,3.08
2022-10-17T09:24:09.565Z,3.35
2022-10-17T09:26:44.291Z,3.33
2022-10-17T09:29:19.101Z,3.05
2022-10-17T09:32:02.349Z,2.80
2022-10-17T09:34:32.128Z,2.97
2022-10-17T09:37:02.930Z,3.33
2022-10-17T09:39:33.041Z,3.20
2022-10-17T09:42:01.484Z,3.38
2022-10-17T09:44:51.245Z,3.77
2022-10-17T09:47:22.044Z,3.30
2022-10-17T09:49:50.025Z,3.03
2022-10-17T09:52:24.859Z,3.05
2022-10-17T09:55:06.820Z,3.40
2022-10-17T09:57:54.074Z,3.10
2022-10-17T10:00:28.983Z,3.17
2022-10-17T10:03:13.575Z,3.70
2022-10-17T10:05:41.512Z,5.97
2022-10-17T10:08:15.990Z,6.10
2022-10-17T10:10:44.052Z,4.45
2022-10-17T10:13:13.803Z,3.63
2022-10-17T10:15:46.003Z,3.47
2022-10-17T10:18:35.752Z,3.20
2022-10-17T10:21:15.725Z,3.25
2022-10-17T10:24:08.500Z,3.70
2022-10-17T10:26:38.723Z,3.30
2022-10-17T10:29:20.324Z,3.47
2022-10-17T10:31:48.349Z,3.10
2022-10-17T10:34:28.813Z,3.67
2022-10-17T10:37:04.693Z,3.55
2022-10-17T10:39:58.190Z,2.97
2022-10-17T10:42:52.036Z,3.22
2022-10-17T10:45:47.510Z,3.33
2022-10-17T10:48:33.821Z,3.03
2022-10-17T10:51:28.716Z,3.50
2022-10-17T10:54:03.770Z,3.40
2022-10-17T10:56:35.128Z,3.30
2022-10-17T10:59:19.087Z,3.75
2022-10-17T11:01:49.174Z,3.30
2022-10-17T11:04:38.209Z,3.95
2022-10-17T11:07:13.449Z,3.40
2022-10-17T11:09:46.355Z,3.47
2022-10-17T11:12:55.092Z,3.50
2022-10-17T11:15:30.296Z,3.58
2022-10-17T11:18:03.324Z,4.00
2022-10-17T11:20:38.312Z,3.67
2022-10-17T11:23:19.701Z,3.38
2022-10-17T11:25:49.246Z,3.47
2022-10-17T11:28:21.594Z,3.92
2022-10-17T11:30:56.894Z,3.67
2022-10-17T11:33:34.213Z,3.50
2022-10-17T11:36:08.339Z,3.95
2022-10-17T11:38:43.442Z,3.80
2022-10-17T11:41:18.936Z,3.35
2022-10-17T11:44:05.934Z,3.88
2022-10-17T11:46:36.088Z,3.33
2022-10-17T11:49:13.085Z,3.72
2022-10-17T11:52:03.586Z,3.58
2022-10-17T11:54:38.226Z,3.00
2022-10-17T11:57:16.645Z,3.60
2022-10-17T12:00:00.556Z,3.38
2022-10-17T12:03:07.722Z,3.90
2022-10-17T12:05:57.301Z,3.50
2022-10-17T12:08:30.575Z,3.35
2022-10-17T12:11:03.808Z,3.53
2022-10-17T12:13:33.246Z,3.75
2022-10-17T12:16:18.578Z,3.70
2022-10-17T12:18:51.316Z,3.80
2022-10-17T12:21:18.160Z,3.45
2022-10-17T12:23:55.329Z,3.70
2022-10-17T12:26:27.842Z,3.92
2022-10-17T12:28:56.692Z,3.90
2022-10-17T12:31:29.662Z,3.95
2022-10-17T12:34:02.002Z,3.85
2022-10-17T12:36:28.943Z,4.25
2022-10-17T12:39:01.941Z,3.65
2022-10-17T12:41:41.229Z,4.93
2022-10-17T12:44:14.418Z,3.92
2022-10-17T12:47:02.619Z,3.30
2022-10-17T12:49:45.791Z,3.87
2022-10-17T12:52:21.880Z,3.38
2022-10-17T12:55:12.526Z,3.50
2022-10-17T12:57:56.995Z,4.45
2022-10-17T13:00:31.981Z,4.07
2022-10-17T13:03:05.182Z,4.45
2022-10-17T13:05:35.481Z,3.92
2022-10-17T13:08:05.867Z,3.65
2022-10-17T13:10:39.684Z,4.03
2022-10-17T13:13:14.305Z,4.00
2022-10-17T13:15:46.611Z,3.97
2022-10-17T13:18:22.586Z,3.97
2022-10-17T13:21:05.557Z,3.95
2022-10-17T13:23:37.789Z,4.05
2022-10-17T13:26:15.983Z,3.28
2022-10-17T13:28:44.045Z,3.65
2022-10-17T13:31:35.634Z,3.60
2022-10-17T13:34:05.568Z,3.90
2022-10-17T13:36:34.206Z,4.13
2022-10-17T13:39:12.089Z,4.50
2022-10-17T13:41:41.415Z,3.92
2022-10-17T13:44:14.927Z,3.75
2022-10-17T13:46:42.797Z,3.85
2022-10-17T13:49:36.243Z,3.83
2022-10-17T13:52:05.903Z,3.50
2022-10-17T13:54:35.591Z,4.13
2022-10-17T13:57:04.658Z,4.28
2022-10-17T13:59:41.991Z,3.85
2022-10-17T14:02:16.098Z,3.70
2022-10-17T14:05:15.080Z,3.25
2022-10-17T14:07:58.389Z,3.50
2022-10-17T14:10:36.743Z,4.00
2022-10-17T14:13:06.852Z,4.13
2022-10-17T14:15:35.735Z,4.00
2022-10-17T14:18:07.708Z,3.63
2022-10-17T14:23:33.539Z,3.72
2022-10-17T14:26:14.603Z,4.00
2022-10-17T14:28:44.036Z,3.35
2022-10-17T14:31:21.520Z,4.30
2022-10-17T14:33:51.137Z,3.70
2022-10-17T14:36:20.103Z,5.03
2022-10-17T14:38:50.078Z,3.58
2022-10-17T14:41:43.526Z,3.75
2022-10-17T14:44:22.318Z,3.60
2022-10-17T14:46:53.470Z,3.72
2022-10-17T14:49:34.303Z,3.10
2022-10-17T14:52:18.215Z,3.22
2022-10-17T14:54:48.634Z,2.70
2022-10-17T14:57:26.504Z,2.95
2022-10-17T14:59:55.717Z,2.75
2022-10-17T15:02:28.794Z,2.60
2022-10-17T15:04:56.012Z,3.55
2022-10-17T15:07:23.762Z,6.05
2022-10-17T15:09:52.671Z,6.57
2022-10-17T15:12:22.557Z,2.92
2022-10-17T15:14:49.441Z,2.80
2022-10-17T15:17:26.842Z,3.53
2022-10-17T15:19:54.026Z,4.38
2022-10-17T15:22:20.803Z,7.78
2022-10-17T15:24:47.891Z,5.50
2022-10-17T15:27:20.332Z,2.85
2022-10-17T15:29:47.647Z,2.80
2022-10-17T15:32:14.419Z,3.20
2022-10-17T15:34:41.775Z,3.22
2022-10-17T15:37:23.151Z,3.45
2022-10-17T15:39:59.986Z,5.55
2022-10-17T15:42:29.284Z,3.40
2022-10-17T15:44:57.394Z,3.95
2022-10-17T15:47:36.054Z,3.30
2022-10-17T15:50:03.450Z,3.13
2022-10-17T15:52:30.188Z,3.40
2022-10-17T15:54:59.540Z,3.55
2022-10-17T15:57:38.536Z,2.90
2022-10-17T16:00:11.728Z,3.78
2022-10-17T16:02:40.825Z,3.50
2022-10-17T16:05:25.588Z,3.28
2022-10-17T16:07:53.621Z,3.03
2022-10-17T16:10:21.101Z,2.97
2022-10-17T16:12:49.767Z,3.10
2022-10-17T16:15:25.100Z,4.20
2022-10-17T16:17:53.336Z,4.18
2022-10-17T16:20:21.396Z,4.60
2022-10-17T16:22:49.342Z,3.10
2022-10-17T16:25:24.229Z,3.30
2022-10-17T16:27:54.057Z,3.08
2022-10-17T16:32:54.547Z,3.47
2022-10-17T16:35:25.172Z,3.93
2022-10-17T16:37:56.377Z,3.47
2022-10-17T16:40:23.282Z,3.70
2022-10-17T16:42:49.973Z,3.43
2022-10-17T16:45:20.700Z,4.10
2022-10-17T16:47:48.100Z,3.83
2022-10-17T16:50:15.763Z,4.70
2022-10-17T16:52:42.621Z,4.23
2022-10-17T16:55:09.932Z,5.68
2022-10-17T16:57:37.264Z,5.47
2022-10-17T17:00:08.167Z,5.77
2022-10-17T17:02:35.136Z,6.50
2022-10-17T17:05:01.918Z,5.90
2022-10-17T17:07:29.729Z,5.00
2022-10-17T17:09:57.059Z,5.00
2022-10-17T17:12:23.958Z,4.70
2022-10-17T17:14:51.336Z,5.30
2022-10-17T17:17:30.345Z,5.57
2022-10-17T17:20:06.337Z,4.73
2022-10-17T17:22:36.059Z,4.47
2022-10-17T17:25:02.865Z,4.80
2022-10-17T17:27:32.397Z,4.90
2022-10-17T17:29:59.682Z,5.23
2022-10-17T17:32:26.339Z,5.00
2022-10-17T17:34:53.153Z,4.80
2022-10-17T17:37:19.810Z,4.23
2022-10-17T17:39:46.554Z,4.10
2022-10-17T17:42:13.267Z,4.83
2022-10-17T17:44:40.439Z,4.53
2022-10-17T17:47:09.634Z,5.00
2022-10-17T17:49:36.608Z,4.23
2022-10-17T17:54:38.496Z,4.03
2022-10-17T17:57:07.684Z,4.03
2022-10-17T17:59:34.796Z,3.90
2022-10-17T18:02:02.818Z,3.57
2022-10-17T18:04:29.626Z,4.50
2022-10-17T18:06:56.306Z,5.30
2022-10-17T18:09:23.951Z,5.73
2022-10-17T18:11:50.616Z,5.27
2022-10-17T18:14:19.072Z,5.23
2022-10-17T18:16:45.788Z,5.80
2022-10-17T18:19:12.831Z,5.37
2022-10-17T18:21:39.512Z,5.10
2022-10-17T18:24:06.778Z,5.07
2022-10-17T18:26:34.254Z,4.87
2022-10-17T18:29:01.156Z,4.87
2022-10-17T18:31:35.479Z,5.30
2022-10-17T18:34:03.039Z,4.57
2022-10-17T18:36:30.752Z,4.53
2022-10-17T18:38:58.940Z,4.70
2022-10-17T18:41:26.845Z,5.23
2022-10-17T18:43:55.010Z,5.60
2022-10-17T18:46:24.591Z,5.57
2022-10-17T18:48:51.327Z,5.87
2022-10-17T18:51:21.151Z,5.23
2022-10-17T18:53:50.340Z,4.50
2022-10-17T18:56:18.639Z,4.10
2022-10-17T18:58:45.829Z,4.60
2022-10-17T19:01:15.545Z,4.63
2022-10-17T19:03:43.524Z,4.70
2022-10-17T19:06:11.688Z,4.40
2022-10-17T19:08:39.143Z,4.33
2022-10-17T19:11:21.479Z,4.50
2022-10-17T19:13:49.105Z,4.03
2022-10-17T19:16:22.456Z,5.13
2022-10-17T19:18:54.123Z,4.97
2022-10-17T19:21:22.092Z,4.87
2022-10-17T19:23:59.971Z,4.70
2022-10-17T19:26:28.293Z,4.80
2022-10-17T19:28:55.934Z,4.23
2022-10-17T19:31:27.111Z,4.63
2022-10-17T19:33:55.290Z,4.60
2022-10-17T19:36:27.529Z,4.10
2022-10-17T19:39:00.832Z,4.90
2022-10-17T19:41:28.294Z,5.10
2022-10-17T19:43:55.029Z,5.00
2022-10-17T19:46:23.985Z,5.63
2022-10-17T19:48:51.602Z,5.67
2022-10-17T19:51:20.063Z,6.70
2022-10-17T19:53:47.633Z,4.03
2022-10-17T19:56:18.436Z,7.23
2022-10-17T19:58:47.018Z,5.97
2022-10-17T20:01:20.032Z,5.10
2022-10-17T20:03:47.387Z,4.53
2022-10-17T20:06:14.705Z,5.03
2022-10-17T20:08:42.148Z,4.47
2022-10-17T20:11:13.749Z,4.47
2022-10-17T20:13:40.636Z,4.63
2022-10-17T20:16:10.859Z,4.17
2022-10-17T20:18:40.923Z,4.40
2022-10-17T20:21:11.072Z,5.70
2022-10-17T20:23:38.520Z,4.50
2022-10-17T20:26:25.490Z,4.40
2022-10-17T20:28:55.951Z,5.47
2022-10-17T20:31:24.078Z,5.30
2022-10-17T20:33:58.362Z,5.80
2022-10-17T20:36:25.872Z,6.63
2022-10-17T20:39:01.274Z,6.13
2022-10-17T20:41:27.949Z,6.10
2022-10-17T20:43:55.801Z,5.77
2022-10-17T20:46:36.439Z,5.80
2022-10-17T20:49:05.316Z,5.90
2022-10-17T20:51:32.246Z,5.70
2022-10-17T20:53:59.044Z,5.83
2022-10-17T20:56:28.818Z,6.27
2022-10-17T20:59:05.401Z,6.27
2022-10-17T21:01:34.193Z,6.60
2022-10-17T21:04:21.304Z,5.10
2022-10-17T21:06:48.817Z,5.27
2022-10-17T21:09:15.480Z,4.73
2022-10-17T21:11:43.134Z,5.23
2022-10-17T21:14:11.929Z,4.77
2022-10-17T21:16:40.195Z,5.00
2022-10-17T21:19:06.936Z,4.90
2022-10-17T21:21:38.603Z,4.80
2022-10-17T21:24:08.960Z,4.47
2022-10-17T21:26:37.515Z,4.40
2022-10-17T21:29:08.386Z,4.93
2022-10-17T21:31:37.216Z,4.50
2022-10-17T21:34:17.488Z,4.60
2022-10-17T21:36:45.098Z,4.97
2022-10-17T21:39:13.473Z,5.20
2022-10-17T21:41:40.593Z,4.83
2022-10-17T21:44:26.938Z,4.80
2022-10-17T21:46:57.280Z,4.87
2022-10-17T21:49:25.258Z,4.93
2022-10-17T21:51:52.594Z,5.50
2022-10-17T21:54:20.962Z,5.10
2022-10-17T21:57:36.208Z,5.93
2022-10-17T22:07:38.257Z,5.53
2022-10-17T22:10:09.383Z,5.60
2022-10-17T22:12:36.025Z,6.37
2022-10-17T22:15:03.688Z,6.27
2022-10-17T22:17:31.788Z,6.30
2022-10-17T22:19:58.587Z,6.57
2022-10-17T22:22:25.297Z,6.80
2022-10-17T22:24:52.357Z,6.83
2022-10-17T22:27:21.482Z,6.00
2022-10-17T22:29:48.138Z,8.00
2022-10-17T22:32:18.695Z,7.60
2022-10-17T22:34:48.503Z,6.67
2022-10-17T22:37:15.239Z,8.10
2022-10-17T22:39:41.952Z,6.93
2022-10-17T22:42:08.699Z,6.63
2022-10-17T22:44:35.511Z,6.33
2022-10-17T22:47:02.165Z,6.27
2022-10-17T22:49:42.016Z,7.33
2022-10-17T22:52:08.700Z,6.00
2022-10-17T22:54:35.412Z,6.57
2022-10-17T22:57:02.035Z,7.17
2022-10-17T22:59:42.969Z,5.83
2022-10-17T23:02:09.613Z,6.70
2022-10-17T23:04:36.847Z,6.80
2022-10-17T23:07:03.586Z,6.60
2022-10-17T23:09:30.242Z,7.77
2022-10-17T23:11:56.920Z,7.00
2022-10-17T23:14:23.565Z,6.47
2022-10-17T23:16:50.212Z,7.27
2022-10-17T23:19:16.918Z,7.70
2022-10-17T23:21:43.575Z,7.20
2022-10-17T23:24:10.278Z,7.03
2022-10-17T23:26:37.132Z,7.53
2022-10-17T23:29:03.833Z,8.10
2022-10-17T23:31:30.694Z,7.90
2022-10-17T23:33:58.769Z,7.60
2022-10-17T23:36:25.545Z,7.73
2022-10-17T23:38:54.999Z,8.33
2022-10-17T23:41:24.598Z,7.20
2022-10-17T23:43:51.297Z,8.93
2022-10-17T23:46:18.377Z,8.03
2022-10-17T23:48:45.168Z,8.73
2022-10-17T23:51:11.907Z,8.50
2022-10-17T23:53:39.395Z,7.33
2022-10-17T23:56:07.795Z,9.03
2022-10-17T23:58:34.944Z,8.23
